This is the latest recevied weather packets stored in our database for station/object KC3QLX. If no packets are shown the sender has not sent any weather packets the latest 10 day(s).
| Time | Temp. | Humidity | Pressure | Rain* | Wind** | Luminosity | Snow |
|---|---|---|---|---|---|---|---|
| 1778201696 | 11.67° C | 70% | 1008.5 hPa | 0 mm | - | 0 W/m² | - |
| 1778201393 | 11.67° C | 71% | 1008.4 hPa | 0 mm | - | 0 W/m² | - |
| 1778201089 | 11.67° C | 70% | 1008.3 hPa | 0 mm | - | 0 W/m² | - |
| 1778200787 | 11.67° C | 70% | 1008.2 hPa | 0 mm | - | 0 W/m² | - |
| 1778200483 | 12.22° C | 69% | 1008.1 hPa | 0 mm | - | 0 W/m² | - |
| 1778200180 | 12.22° C | 70% | 1008.1 hPa | 0 mm | - | 0 W/m² | - |
| 1778199877 | 12.22° C | 66% | 1008 hPa | 0 mm | - | 0 W/m² | - |
| 1778199572 | 12.22° C | 66% | 1008.1 hPa | 0 mm | - | 0 W/m² | - |
| 1778199269 | 12.78° C | 64% | 1007.8 hPa | 0 mm | - | 0 W/m² | - |
| 1778198966 | 12.78° C | 66% | 1008.1 hPa | 0 mm | - | 0 W/m² | - |
| 1778198662 | 12.78° C | 65% | 1007.8 hPa | 0 mm | - | 0 W/m² | - |
| 1778198359 | 12.78° C | 63% | 1007.8 hPa | 0 mm | - | 0 W/m² | - |
| 1778198056 | 13.33° C | 57% | 1008.1 hPa | 0 mm | - | 0 W/m² | - |
| 1778197753 | 13.33° C | 58% | 1008 hPa | 0 mm | - | 1 W/m² | - |
| 1778197450 | 13.33° C | 58% | 1007.8 hPa | 0 mm | - | 3 W/m² | - |
| 1778197146 | 13.89° C | 59% | 1007.7 hPa | 0 mm | - | 7 W/m² | - |
| 1778196843 | 13.89° C | 57% | 1007.8 hPa | 0 mm | - | 11 W/m² | - |
| 1778196541 | 13.89° C | 57% | 1007.9 hPa | 0 mm | - | 14 W/m² | - |
| 1778196237 | 13.89° C | 56% | 1007.6 hPa | 0 mm | - | 16 W/m² | - |
| 1778195935 | 14.44° C | 54% | 1007.7 hPa | 0 mm | - | 13 W/m² | - |
| 1778195631 | 14.44° C | 55% | 1007.6 hPa | 0 mm | - | 16 W/m² | - |
| 1778195328 | 14.44° C | 53% | 1007.6 hPa | 0 mm | - | 22 W/m² | - |
| 1778195025 | 14.44° C | 50% | 1007.5 hPa | 0 mm | - | 26 W/m² | - |
| 1778194724 | 15° C | 51% | 1007.7 hPa | 0 mm | - | 32 W/m² | - |
| 1778194421 | 15° C | 56% | 1007.9 hPa | 0 mm | - | 49 W/m² | - |
* Rain latest hour (hover to see other rain measurements)
** Current wind speed in m/s (hover to see current wind gust speed)